Time;durP1;ratioP1;P1;durP2;ratioP2;P2;SDS_P1;SDS_P2;PMS_P1;PMS_P2;Temp;Humidity;BMP_temperature;BMP_pressure;BME280_temperature;BME280_humidity;BME280_pressure;Samples;Min_cycle;Max_cycle;Signal;HPM_P1;HPM_P2
2021/06/26 00:02:15;;;;;;;5.27;4.77;;;20.20;99.90;;;;;;5081310;28;20506;-82
2021/06/26 00:04:43;;;;;;;5.73;4.97;;;20.20;99.90;;;;;;5082150;28;20448;-81
2021/06/26 00:07:09;;;;;;;5.83;5.40;;;20.20;99.90;;;;;;5082729;28;20452;-82
2021/06/26 00:09:36;;;;;;;5.67;5.17;;;20.10;99.90;;;;;;5084091;28;20433;-81
2021/06/26 00:12:03;;;;;;;5.60;4.67;;;20.10;99.90;;;;;;5084116;28;20502;-81
2021/06/26 00:14:31;;;;;;;4.43;4.13;;;20.10;99.90;;;;;;5082671;28;20496;-83
2021/06/26 00:16:58;;;;;;;5.60;4.87;;;20.10;99.90;;;;;;5082050;28;20433;-83
2021/06/26 00:19:24;;;;;;;5.77;5.27;;;20.10;99.90;;;;;;5082279;28;20519;-82
2021/06/26 00:21:51;;;;;;;5.17;4.67;;;20.10;99.90;;;;;;5083128;28;20661;-82
2021/06/26 00:24:17;;;;;;;8.33;7.50;;;20.00;99.90;;;;;;5081546;28;20877;-82
2021/06/26 00:26:44;;;;;;;6.50;6.00;;;20.00;99.90;;;;;;5083430;28;20450;-81
2021/06/26 00:29:10;;;;;;;6.00;5.40;;;20.00;99.90;;;;;;5081544;28;20468;-82
2021/06/26 00:31:38;;;;;;;5.27;4.70;;;20.00;99.90;;;;;;5081390;28;20496;-83
2021/06/26 00:34:05;;;;;;;9.57;6.20;;;19.90;99.90;;;;;;5081951;28;20483;-83
2021/06/26 00:36:32;;;;;;;6.10;4.80;;;20.00;99.90;;;;;;5082207;28;20573;-80
2021/06/26 00:38:58;;;;;;;6.17;5.57;;;19.90;99.90;;;;;;5082112;28;20892;-82
2021/06/26 00:41:25;;;;;;;5.47;4.97;;;19.80;99.90;;;;;;5079785;28;20482;-82
2021/06/26 00:43:51;;;;;;;5.40;4.90;;;19.80;99.90;;;;;;5080462;28;20522;-82
2021/06/26 00:46:18;;;;;;;5.03;4.63;;;19.80;99.90;;;;;;5080116;28;20449;-82
2021/06/26 00:48:46;;;;;;;6.60;5.20;;;19.70;99.90;;;;;;5080552;28;20439;-82
2021/06/26 00:51:13;;;;;;;5.77;5.20;;;19.70;99.90;;;;;;5084413;28;20469;-81
2021/06/26 00:53:39;;;;;;;9.10;6.33;;;19.60;99.90;;;;;;5093019;28;20482;-80
2021/06/26 00:56:08;;;;;;;6.27;5.77;;;19.60;99.90;;;;;;5100180;28;20436;-81
2021/06/26 00:58:35;;;;;;;5.93;5.33;;;19.50;99.90;;;;;;5100920;28;20500;-81
2021/06/26 01:01:02;;;;;;;6.80;6.20;;;19.50;99.90;;;;;;5099604;28;20433;-82
2021/06/26 01:03:28;;;;;;;6.43;5.73;;;19.50;99.90;;;;;;5095093;28;20469;-81
2021/06/26 01:05:56;;;;;;;6.13;5.63;;;19.40;99.90;;;;;;5085894;28;20522;-82
2021/06/26 01:08:25;;;;;;;6.73;6.10;;;19.40;99.90;;;;;;5083307;28;20950;-82
2021/06/26 01:10:52;;;;;;;6.40;5.83;;;19.40;99.90;;;;;;5080408;28;20861;-83
2021/06/26 01:13:18;;;;;;;6.00;5.50;;;19.30;99.90;;;;;;5079427;28;20470;-83
2021/06/26 01:15:45;;;;;;;6.10;5.60;;;19.30;99.90;;;;;;5080125;28;20490;-81
2021/06/26 01:18:12;;;;;;;8.57;6.03;;;19.30;99.90;;;;;;5080036;28;20522;-83
2021/06/26 01:20:38;;;;;;;5.87;5.33;;;19.20;99.90;;;;;;5089656;28;20448;-80
2021/06/26 01:23:06;;;;;;;7.30;5.60;;;19.10;99.90;;;;;;5082770;28;20499;-82
2021/06/26 01:25:33;;;;;;;7.70;6.00;;;19.10;99.90;;;;;;5080627;28;20984;-82
2021/06/26 01:28:00;;;;;;;11.53;7.27;;;19.00;99.90;;;;;;5080440;28;20519;-82
2021/06/26 01:30:29;;;;;;;8.07;6.47;;;18.90;99.90;;;;;;5080391;28;20451;-82
2021/06/26 01:32:56;;;;;;;9.00;6.60;;;18.80;99.90;;;;;;5080956;28;20489;-82
2021/06/26 01:35:23;;;;;;;5.90;5.40;;;18.80;99.90;;;;;;5091538;28;20432;-82
2021/06/26 01:37:50;;;;;;;7.80;7.03;;;18.70;99.90;;;;;;5093435;28;20474;-82
2021/06/26 01:40:19;;;;;;;7.20;6.50;;;18.70;99.90;;;;;;5092101;28;20450;-81
2021/06/26 01:42:46;;;;;;;7.20;6.60;;;18.70;99.90;;;;;;5079949;28;20462;-82
2021/06/26 01:45:14;;;;;;;7.10;6.13;;;18.60;99.90;;;;;;5083327;28;20951;-82
2021/06/26 01:47:46;;;;;;;10.60;6.10;;;18.60;99.90;;;;;;5079369;28;20481;-82
2021/06/26 01:50:14;;;;;;;7.47;6.83;;;18.50;99.90;;;;;;5078713;28;20463;-82
2021/06/26 01:52:40;;;;;;;7.63;6.93;;;18.50;99.90;;;;;;5079024;28;20464;-82
2021/06/26 01:55:08;;;;;;;6.67;6.07;;;18.40;99.90;;;;;;5078371;28;21032;-82
2021/06/26 01:57:36;;;;;;;8.47;6.30;;;18.30;99.90;;;;;;5079569;28;20956;-82
2021/06/26 02:00:05;;;;;;;7.23;6.53;;;18.20;99.90;;;;;;5079635;28;20478;-83
2021/06/26 02:02:32;;;;;;;6.73;6.23;;;18.50;99.90;;;;;;5079321;28;20446;-82
2021/06/26 02:04:58;;;;;;;7.77;7.00;;;18.10;99.90;;;;;;5079687;28;20472;-82
2021/06/26 02:07:25;;;;;;;7.00;6.17;;;18.10;99.90;;;;;;5079151;28;20953;-82
2021/06/26 02:09:52;;;;;;;10.10;6.43;;;18.10;99.90;;;;;;5088071;28;20488;-80
2021/06/26 02:12:18;;;;;;;7.60;6.77;;;18.10;99.90;;;;;;5089225;28;20480;-81
2021/06/26 02:14:46;;;;;;;8.30;7.50;;;18.20;99.90;;;;;;5088845;28;20450;-81
2021/06/26 02:17:13;;;;;;;7.13;6.43;;;18.10;99.90;;;;;;5080669;28;20453;-82
2021/06/26 02:19:40;;;;;;;7.40;6.80;;;18.10;99.90;;;;;;5089562;28;20531;-81
2021/06/26 02:22:06;;;;;;;8.53;7.83;;;18.10;99.90;;;;;;5080603;28;20594;-82
2021/06/26 02:24:33;;;;;;;11.10;7.97;;;18.10;99.90;;;;;;5079956;28;20814;-83
2021/06/26 02:26:59;;;;;;;7.53;6.90;;;18.20;99.90;;;;;;5078607;28;20514;-83
2021/06/26 02:29:26;;;;;;;8.33;6.53;;;18.20;99.90;;;;;;5079529;28;20446;-83
2021/06/26 02:31:54;;;;;;;6.63;6.03;;;18.30;99.90;;;;;;5079671;28;20499;-83
2021/06/26 02:34:20;;;;;;;7.40;6.70;;;18.20;99.90;;;;;;5080780;28;20475;-82
2021/06/26 02:36:47;;;;;;;8.37;7.57;;;18.30;99.90;;;;;;5080127;28;20452;-83
2021/06/26 02:39:13;;;;;;;7.70;6.93;;;18.30;99.90;;;;;;5078401;28;20855;-83
2021/06/26 02:41:40;;;;;;;8.10;7.40;;;18.30;99.90;;;;;;5079117;28;20446;-82
2021/06/26 02:44:08;;;;;;;8.80;7.90;;;18.30;99.90;;;;;;5078074;28;20505;-83
2021/06/26 02:46:34;;;;;;;8.23;7.53;;;18.20;99.90;;;;;;5078255;28;20498;-83
2021/06/26 02:49:02;;;;;;;10.77;6.47;;;18.10;99.90;;;;;;5078460;28;20792;-83
2021/06/26 02:51:29;;;;;;;9.60;7.37;;;18.10;99.90;;;;;;5078289;28;20475;-83
2021/06/26 02:53:55;;;;;;;8.30;7.07;;;18.00;99.90;;;;;;5078271;28;20469;-82
2021/06/26 02:56:22;;;;;;;9.60;8.33;;;18.00;99.90;;;;;;5079052;28;20449;-82
2021/06/26 02:58:49;;;;;;;8.73;6.77;;;18.00;99.90;;;;;;5078999;28;20482;-82
2021/06/26 03:01:15;;;;;;;8.30;7.10;;;17.90;99.90;;;;;;5082676;28;20450;-82
2021/06/26 03:03:42;;;;;;;8.53;7.73;;;17.90;99.90;;;;;;5078519;28;20501;-83
2021/06/26 03:06:10;;;;;;;11.23;9.10;;;17.90;99.90;;;;;;5078268;28;20504;-82
2021/06/26 03:08:37;;;;;;;8.40;7.70;;;17.90;99.90;;;;;;5078105;28;20438;-82
2021/06/26 03:11:03;;;;;;;7.67;7.00;;;17.80;99.90;;;;;;5079082;28;20450;-81
2021/06/26 03:13:30;;;;;;;8.17;7.47;;;17.80;99.90;;;;;;5076884;28;20521;-83
2021/06/26 03:15:56;;;;;;;8.83;7.80;;;17.70;99.90;;;;;;5077005;28;20449;-82
2021/06/26 03:18:23;;;;;;;9.37;7.50;;;17.70;99.90;;;;;;5084596;28;20471;-80
2021/06/26 03:20:50;;;;;;;8.40;7.63;;;17.70;99.90;;;;;;5088293;28;20498;-81
2021/06/26 03:23:18;;;;;;;9.30;7.20;;;17.70;99.90;;;;;;5088617;28;20483;-81
2021/06/26 03:25:44;;;;;;;10.40;8.13;;;17.80;99.90;;;;;;5087105;28;20441;-83
2021/06/26 03:28:11;;;;;;;9.27;7.77;;;17.60;99.90;;;;;;5081567;28;20441;-82
2021/06/26 03:30:37;;;;;;;8.03;7.27;;;17.50;99.90;;;;;;5078394;28;20432;-82
2021/06/26 03:33:04;;;;;;;8.00;7.30;;;17.60;99.90;;;;;;5099209;22;20486;-82
2021/06/26 03:35:32;;;;;;;8.60;7.60;;;17.60;99.90;;;;;;5068224;28;20442;-81
2021/06/26 03:37:58;;;;;;;9.60;8.60;;;17.60;99.90;;;;;;5068451;28;20468;-81
2021/06/26 03:40:26;;;;;;;9.00;7.70;;;17.60;99.90;;;;;;5067950;28;20523;-81
2021/06/26 03:42:53;;;;;;;14.97;13.53;;;17.60;99.90;;;;;;5066371;28;20454;-81
2021/06/26 03:45:19;;;;;;;8.63;7.70;;;17.50;99.90;;;;;;5065480;28;20457;-81
2021/06/26 03:47:46;;;;;;;9.10;8.20;;;17.50;99.90;;;;;;5061174;28;20461;-81
2021/06/26 03:50:13;;;;;;;8.35;7.55;;;17.60;99.90;;;;;;5057529;28;20545;-81
2021/06/26 03:52:39;;;;;;;8.07;7.30;;;17.60;99.90;;;;;;5057362;28;20261;-81
2021/06/26 03:55:07;;;;;;;10.00;8.50;;;17.60;99.90;;;;;;5056714;28;20445;-80
2021/06/26 03:57:35;;;;;;;9.47;8.60;;;17.60;99.90;;;;;;5057759;28;20963;-80
2021/06/26 04:00:02;;;;;;;9.37;8.57;;;17.60;99.90;;;;;;5056102;28;20568;-80
2021/06/26 04:02:28;;;;;;;8.47;7.77;;;17.70;99.90;;;;;;5056834;28;20456;-80
2021/06/26 04:04:55;;;;;;;8.37;7.50;;;17.70;99.90;;;;;;5056140;28;20466;-81
2021/06/26 04:07:22;;;;;;;9.47;8.30;;;17.70;99.90;;;;;;5058368;28;20449;-80
2021/06/26 04:09:48;;;;;;;8.50;7.70;;;17.70;99.90;;;;;;5069588;28;20471;-80
2021/06/26 04:12:15;;;;;;;10.30;9.40;;;17.70;99.90;;;;;;5069998;28;20838;-80
2021/06/26 04:14:42;;;;;;;8.67;7.77;;;17.70;99.90;;;;;;5068243;28;20984;-81
2021/06/26 04:17:09;;;;;;;8.07;7.37;;;17.80;99.90;;;;;;5058026;28;20450;-81
2021/06/26 04:19:36;;;;;;;9.40;8.10;;;17.90;99.90;;;;;;5056553;28;20482;-81
2021/06/26 04:22:02;;;;;;;9.10;8.20;;;18.00;99.90;;;;;;5057841;28;20499;-80
2021/06/26 04:24:29;;;;;;;8.50;7.50;;;18.00;99.90;;;;;;5056786;28;20486;-82
2021/06/26 04:26:55;;;;;;;9.97;8.87;;;18.10;99.90;;;;;;5057210;28;20824;-81
2021/06/26 04:29:22;;;;;;;9.40;8.60;;;18.10;99.90;;;;;;5057556;28;20839;-81
2021/06/26 04:31:50;;;;;;;9.17;8.27;;;18.10;99.90;;;;;;5058787;28;20495;-81
2021/06/26 04:34:17;;;;;;;15.20;11.37;;;18.10;99.90;;;;;;5057985;28;20543;-82
2021/06/26 04:36:44;;;;;;;8.40;7.70;;;18.20;99.90;;;;;;5059777;28;20450;-81
2021/06/26 04:39:11;;;;;;;8.47;7.73;;;18.20;99.90;;;;;;5060363;28;20490;-81
2021/06/26 04:41:38;;;;;;;8.93;8.13;;;18.20;99.90;;;;;;5060391;28;20450;-81
2021/06/26 04:44:06;;;;;;;10.63;8.53;;;18.30;99.90;;;;;;5060714;28;20827;-81
2021/06/26 04:46:33;;;;;;;8.90;8.00;;;18.40;99.90;;;;;;5060993;28;20516;-81
2021/06/26 04:49:01;;;;;;;10.10;8.03;;;18.50;99.90;;;;;;5060322;28;20949;-83
2021/06/26 04:51:28;;;;;;;9.17;8.27;;;18.50;99.90;;;;;;5060899;28;20446;-81
2021/06/26 04:53:54;;;;;;;9.17;8.33;;;18.60;99.90;;;;;;5060834;28;20795;-82
2021/06/26 04:56:21;;;;;;;12.50;8.30;;;18.70;99.90;;;;;;5059627;28;20949;-81
2021/06/26 04:58:47;;;;;;;9.40;7.83;;;18.70;99.90;;;;;;5060613;28;20474;-81
2021/06/26 05:01:14;;;;;;;10.73;9.13;;;18.70;99.90;;;;;;5059327;28;20485;-82
2021/06/26 05:03:41;;;;;;;8.90;8.10;;;18.60;99.90;;;;;;5059972;28;20470;-82
2021/06/26 05:06:09;;;;;;;10.97;8.87;;;18.60;99.90;;;;;;5060651;28;20448;-82
2021/06/26 05:08:35;;;;;;;9.83;8.93;;;18.60;99.90;;;;;;5059872;28;20501;-82
2021/06/26 05:11:02;;;;;;;9.97;8.97;;;18.70;99.90;;;;;;5060210;28;20467;-82
2021/06/26 05:13:29;;;;;;;9.63;8.70;;;18.80;99.90;;;;;;5060681;28;20862;-82
2021/06/26 05:15:57;;;;;;;9.37;8.57;;;18.90;99.90;;;;;;5059938;28;20558;-81
2021/06/26 05:18:27;;;;;;;10.10;8.70;;;19.00;99.90;;;;;;5060948;28;20497;-82
2021/06/26 05:20:54;;;;;;;8.90;8.00;;;19.00;99.90;;;;;;5067375;28;20472;-81
2021/06/26 05:23:22;;;;;;;8.77;7.93;;;19.10;99.90;;;;;;5057274;28;20469;-81
2021/06/26 05:25:49;;;;;;;8.57;7.67;;;19.20;99.90;;;;;;5061525;28;20601;-81
2021/06/26 05:28:16;;;;;;;8.80;8.00;;;19.30;99.90;;;;;;5058605;28;21001;-82
2021/06/26 05:30:43;;;;;;;7.73;7.03;;;19.40;99.90;;;;;;5058299;28;20447;-81
2021/06/26 05:33:10;;;;;;;11.33;7.60;;;19.40;99.90;;;;;;5058693;28;20483;-81
2021/06/26 05:35:36;;;;;;;8.67;7.87;;;19.40;99.90;;;;;;5057688;28;20475;-81
2021/06/26 05:38:03;;;;;;;9.60;8.30;;;19.20;99.90;;;;;;5057940;28;20514;-82
2021/06/26 05:40:31;;;;;;;7.80;7.10;;;19.20;99.90;;;;;;5057670;28;20915;-81
2021/06/26 05:42:58;;;;;;;9.13;8.03;;;19.50;99.90;;;;;;5060494;28;20449;-81
2021/06/26 05:45:24;;;;;;;8.80;7.73;;;19.20;99.90;;;;;;5061218;28;20846;-81
2021/06/26 05:47:51;;;;;;;9.03;7.50;;;19.20;99.90;;;;;;5068875;28;20518;-81
2021/06/26 05:50:18;;;;;;;9.03;8.23;;;19.40;99.90;;;;;;5071881;28;20449;-81
2021/06/26 05:52:46;;;;;;;14.50;8.03;;;19.50;99.90;;;;;;5062816;28;20499;-82
2021/06/26 05:55:13;;;;;;;11.10;8.03;;;19.40;99.90;;;;;;5057837;28;20501;-82
2021/06/26 05:57:41;;;;;;;9.10;8.20;;;19.30;99.90;;;;;;5058744;28;20959;-82
2021/06/26 06:00:09;;;;;;;7.33;6.70;;;19.40;99.90;;;;;;5064306;28;20476;-81
2021/06/26 06:02:35;;;;;;;7.77;7.07;;;19.50;99.90;;;;;;5070321;28;20449;-82
2021/06/26 06:05:02;;;;;;;8.57;7.87;;;19.60;99.90;;;;;;5070859;28;20462;-82
2021/06/26 06:07:29;;;;;;;8.33;7.67;;;19.50;99.90;;;;;;5063255;28;20851;-82
2021/06/26 06:09:55;;;;;;;8.20;7.50;;;19.60;99.90;;;;;;5057882;28;20846;-82
2021/06/26 06:12:22;;;;;;;8.77;7.97;;;19.70;99.90;;;;;;5058098;28;20951;-82
2021/06/26 06:14:49;;;;;;;12.33;8.73;;;19.50;99.90;;;;;;5058176;28;20456;-82
2021/06/26 06:17:16;;;;;;;9.30;8.40;;;19.40;99.90;;;;;;5059101;28;21010;-82
2021/06/26 06:19:43;;;;;;;9.20;8.20;;;19.40;99.90;;;;;;5059918;28;20894;-82
2021/06/26 06:22:09;;;;;;;11.43;8.73;;;19.40;99.90;;;;;;5057875;28;20966;-82
2021/06/26 06:24:36;;;;;;;8.17;7.37;;;19.50;99.90;;;;;;5060598;28;20465;-82
2021/06/26 06:27:03;;;;;;;8.97;7.80;;;19.50;99.90;;;;;;5075280;28;20535;-82
2021/06/26 06:29:29;;;;;;;8.03;7.20;;;19.60;99.90;;;;;;5071067;28;20479;-82
2021/06/26 06:31:57;;;;;;;11.83;8.40;;;19.70;99.90;;;;;;5075852;28;20444;-82
2021/06/26 06:34:24;;;;;;;10.93;9.27;;;19.80;99.90;;;;;;5075062;28;20532;-82
2021/06/26 06:36:51;;;;;;;9.73;8.67;;;19.80;99.90;;;;;;5077001;28;20452;-82
2021/06/26 06:39:17;;;;;;;9.93;9.00;;;19.70;99.90;;;;;;5077128;28;20459;-82
2021/06/26 06:41:44;;;;;;;10.00;8.97;;;19.70;99.90;;;;;;5072818;28;20475;-82
2021/06/26 06:44:10;;;;;;;16.60;9.23;;;19.80;99.90;;;;;;5057169;28;20500;-82
2021/06/26 06:46:37;;;;;;;9.50;8.20;;;19.80;99.90;;;;;;5057396;28;20454;-82
2021/06/26 06:49:05;;;;;;;9.80;8.90;;;19.80;99.90;;;;;;5058093;28;20456;-82
2021/06/26 06:51:31;;;;;;;11.37;7.33;;;19.90;99.90;;;;;;5057348;28;20476;-82
2021/06/26 06:53:59;;;;;;;10.03;9.03;;;19.90;99.90;;;;;;5056856;28;20462;-82
2021/06/26 06:56:25;;;;;;;9.37;8.57;;;19.80;99.90;;;;;;5065718;28;20509;-82
2021/06/26 06:58:52;;;;;;;8.90;8.00;;;19.80;99.90;;;;;;5076163;28;20479;-81
2021/06/26 07:01:19;;;;;;;9.27;8.47;;;19.80;99.90;;;;;;5075036;28;20474;-82
2021/06/26 07:03:45;;;;;;;10.90;9.80;;;19.70;99.90;;;;;;5073523;28;20504;-82
2021/06/26 07:06:13;;;;;;;9.30;8.03;;;19.70;99.90;;;;;;5060565;28;20547;-82
2021/06/26 07:08:40;;;;;;;10.83;9.73;;;19.90;99.90;;;;;;5058443;28;20434;-82
2021/06/26 07:11:06;;;;;;;9.13;8.23;;;20.00;99.90;;;;;;5060004;28;20442;-82
2021/06/26 07:13:33;;;;;;;10.00;9.00;;;20.10;99.90;;;;;;5077167;28;20465;-82
2021/06/26 07:15:59;;;;;;;9.30;8.47;;;20.40;99.90;;;;;;5078000;28;20433;-82
2021/06/26 07:18:27;;;;;;;12.30;8.40;;;20.50;99.90;;;;;;5070680;28;20445;-82
2021/06/26 07:20:53;;;;;;;9.83;9.03;;;20.50;99.90;;;;;;5061996;28;20507;-82
2021/06/26 07:23:21;;;;;;;8.77;8.00;;;20.40;99.90;;;;;;5058440;28;20878;-82
2021/06/26 07:25:48;;;;;;;7.63;6.43;;;20.40;99.90;;;;;;5056555;28;20819;-82
2021/06/26 07:28:14;;;;;;;7.40;6.80;;;20.70;99.90;;;;;;5056971;28;20449;-82
2021/06/26 07:30:41;;;;;;;7.87;7.17;;;20.90;99.90;;;;;;5057610;28;20465;-82
2021/06/26 07:33:07;;;;;;;10.40;9.30;;;20.80;99.90;;;;;;5056333;28;20972;-82
2021/06/26 07:35:34;;;;;;;7.07;6.43;;;20.80;99.90;;;;;;5062613;28;20434;-82
2021/06/26 07:38:00;;;;;;;6.83;6.13;;;20.90;99.90;;;;;;5055519;28;20477;-82
2021/06/26 07:40:30;;;;;;;7.17;6.67;;;20.80;99.90;;;;;;5056462;28;20477;-82
2021/06/26 07:42:56;;;;;;;8.50;7.47;;;20.70;99.90;;;;;;5059700;28;20495;-80
2021/06/26 07:45:23;;;;;;;7.00;6.30;;;20.90;99.90;;;;;;5055880;28;20442;-80
2021/06/26 07:47:50;;;;;;;7.23;6.10;;;20.90;99.90;;;;;;5056984;28;20498;-83
2021/06/26 07:50:16;;;;;;;10.23;6.80;;;21.00;99.90;;;;;;5055222;28;20480;-83
2021/06/26 07:52:43;;;;;;;6.90;6.40;;;21.10;99.90;;;;;;5056021;28;20504;-81
2021/06/26 07:55:10;;;;;;;11.50;7.30;;;21.20;99.90;;;;;;5055761;28;20446;-83
2021/06/26 07:57:38;;;;;;;7.70;6.90;;;21.40;99.90;;;;;;5056046;28;20477;-83
2021/06/26 08:00:08;;;;;;;7.53;6.93;;;21.60;99.90;;;;;;5061555;28;20442;-82
2021/06/26 08:02:34;;;;;;;7.17;5.90;;;21.70;99.90;;;;;;5060692;28;20449;-82
2021/06/26 08:05:01;;;;;;;8.13;6.17;;;21.50;99.90;;;;;;5064336;28;20508;-82
2021/06/26 08:07:28;;;;;;;7.90;5.70;;;21.40;99.90;;;;;;5065363;28;20445;-81
2021/06/26 08:09:54;;;;;;;6.40;5.80;;;21.70;99.90;;;;;;5069116;28;20940;-82
2021/06/26 08:12:21;;;;;;;7.13;6.40;;;21.70;99.90;;;;;;5069344;28;20441;-82
2021/06/26 08:14:48;;;;;;;6.73;6.20;;;21.80;99.90;;;;;;5071667;28;20522;-81
2021/06/26 08:17:17;;;;;;;5.30;4.90;;;21.70;99.90;;;;;;5073138;28;20441;-81
2021/06/26 08:19:44;;;;;;;6.97;6.37;;;21.80;99.90;;;;;;5070546;28;20868;-82
2021/06/26 08:22:11;;;;;;;6.93;6.33;;;21.90;99.90;;;;;;5064350;28;20486;-82
2021/06/26 08:24:38;;;;;;;7.00;6.30;;;22.00;99.90;;;;;;5062588;28;20491;-82
2021/06/26 08:27:05;;;;;;;6.20;5.60;;;22.10;99.90;;;;;;5063400;28;20494;-82
2021/06/26 08:29:32;;;;;;;7.00;6.30;;;22.30;99.90;;;;;;5062018;28;20450;-83
2021/06/26 08:32:00;;;;;;;6.70;6.20;;;22.30;99.90;;;;;;5061135;28;20442;-82
2021/06/26 08:34:27;;;;;;;8.13;6.40;;;22.30;99.90;;;;;;5061002;28;20470;-82
2021/06/26 08:36:54;;;;;;;6.67;6.17;;;22.30;99.90;;;;;;5060046;28;20928;-82
2021/06/26 08:39:21;;;;;;;6.37;5.87;;;22.20;99.90;;;;;;5061041;28;20438;-82
2021/06/26 08:41:49;;;;;;;7.10;6.50;;;22.00;99.90;;;;;;5060377;28;20522;-82
2021/06/26 08:44:17;;;;;;;6.83;6.33;;;22.00;99.90;;;;;;5061960;28;20470;-83
2021/06/26 08:46:47;;;;;;;7.00;6.40;;;22.10;99.90;;;;;;5061444;28;20864;-83
2021/06/26 08:49:14;;;;;;;6.97;6.27;;;22.10;99.90;;;;;;5061649;28;20469;-82
2021/06/26 08:51:41;;;;;;;6.03;5.53;;;22.00;99.90;;;;;;5060574;28;20445;-82
2021/06/26 08:54:13;;;;;;;6.10;5.70;;;22.00;99.90;;;;;;5060532;28;20918;-82
2021/06/26 08:56:41;;;;;;;6.70;6.10;;;22.00;99.90;;;;;;5060631;28;20430;-82
2021/06/26 08:59:07;;;;;;;9.27;7.10;;;22.10;99.90;;;;;;5059006;28;20960;-80
2021/06/26 09:01:35;;;;;;;7.07;6.47;;;22.30;99.90;;;;;;5058785;28;20473;-81
2021/06/26 09:04:04;;;;;;;7.00;6.40;;;22.50;99.90;;;;;;5062470;28;20541;-80
2021/06/26 09:06:34;;;;;;;7.17;6.47;;;22.50;99.90;;;;;;5061876;28;20446;-80
2021/06/26 09:09:01;;;;;;;8.57;6.00;;;22.70;99.90;;;;;;5058405;28;20450;-80
2021/06/26 09:11:28;;;;;;;7.33;6.73;;;22.50;99.90;;;;;;5059186;28;20446;-80
2021/06/26 09:13:54;;;;;;;19.43;7.33;;;22.60;99.90;;;;;;5057701;28;20480;-80
2021/06/26 09:16:21;;;;;;;6.30;5.80;;;22.60;99.90;;;;;;5057460;28;20936;-80
2021/06/26 09:18:49;;;;;;;7.50;6.80;;;22.70;99.90;;;;;;5057565;28;20446;-80
2021/06/26 09:21:21;;;;;;;6.50;5.80;;;22.60;99.90;;;;;;5057127;28;20477;-80
2021/06/26 09:24:00;;;;;;;6.30;5.80;;;22.60;99.90;;;;;;5057579;28;20473;-80
2021/06/26 09:26:28;;;;;;;5.77;5.30;;;22.70;99.90;;;;;;5057430;28;20474;-80
2021/06/26 09:28:55;;;;;;;6.23;5.80;;;22.50;99.90;;;;;;5057442;28;20443;-80
2021/06/26 09:31:22;;;;;;;6.30;5.70;;;22.70;99.90;;;;;;5058302;28;20820;-80
2021/06/26 09:33:56;;;;;;;5.70;5.30;;;22.80;99.90;;;;;;5079868;22;20595;-82
2021/06/26 09:36:26;;;;;;;6.17;5.67;;;22.80;99.90;;;;;;5091731;28;20449;-83
2021/06/26 09:38:59;;;;;;;6.90;6.30;;;22.90;99.90;;;;;;5083920;28;20512;-84
2021/06/26 09:41:27;;;;;;;6.53;5.90;;;23.00;99.90;;;;;;5082336;28;20465;-84
2021/06/26 09:43:54;;;;;;;6.70;6.20;;;22.60;99.90;;;;;;5081927;28;20461;-84
2021/06/26 09:46:21;;;;;;;6.47;5.97;;;22.40;99.90;;;;;;5081776;28;20445;-84
2021/06/26 09:48:52;;;;;;;5.40;5.00;;;22.40;99.90;;;;;;5082935;28;20475;-83
2021/06/26 09:51:25;;;;;;;6.37;5.77;;;22.60;99.90;;;;;;5085594;28;20429;-83
2021/06/26 09:53:58;;;;;;;5.70;5.30;;;22.50;99.90;;;;;;5089641;28;20884;-82
2021/06/26 09:56:37;;;;;;;6.00;5.50;;;22.50;99.90;;;;;;5089625;28;20455;-83
2021/06/26 09:59:04;;;;;;;5.50;5.10;;;22.60;99.90;;;;;;5088839;28;20521;-82
2021/06/26 10:01:32;;;;;;;6.80;6.03;;;22.60;99.90;;;;;;5093988;28;20485;-83
2021/06/26 10:04:00;;;;;;;5.60;5.20;;;22.80;99.90;;;;;;5083572;28;20869;-83
2021/06/26 10:06:27;;;;;;;6.97;6.37;;;22.80;99.90;;;;;;5081826;28;20448;-84
2021/06/26 10:08:54;;;;;;;6.93;6.10;;;23.30;99.90;;;;;;5080940;28;20475;-83
2021/06/26 10:11:23;;;;;;;5.73;5.33;;;23.60;99.90;;;;;;5081590;28;20495;-83
2021/06/26 10:13:50;;;;;;;7.10;6.53;;;23.80;99.90;;;;;;5082170;28;20884;-83
2021/06/26 10:16:18;;;;;;;9.10;6.20;;;23.90;99.90;;;;;;5083170;28;20447;-81
2021/06/26 10:18:45;;;;;;;7.63;6.30;;;23.90;99.90;;;;;;5083684;28;20502;-84
2021/06/26 10:21:12;;;;;;;7.13;6.43;;;23.80;99.90;;;;;;5083916;28;20482;-83
2021/06/26 10:23:39;;;;;;;6.27;5.73;;;23.60;99.90;;;;;;5084221;28;20473;-82
2021/06/26 10:26:05;;;;;;;6.30;5.80;;;23.70;99.90;;;;;;5086090;28;20448;-83
2021/06/26 10:28:33;;;;;;;6.83;6.27;;;23.60;99.90;;;;;;5081763;28;20449;-83
2021/06/26 10:31:02;;;;;;;6.23;5.83;;;23.40;99.90;;;;;;5084200;28;20441;-82
2021/06/26 10:33:31;;;;;;;6.80;6.10;;;23.30;99.90;;;;;;5085997;28;20499;-81
2021/06/26 10:36:00;;;;;;;6.30;5.80;;;23.10;99.90;;;;;;5088854;28;20430;-81
2021/06/26 10:38:27;;;;;;;6.23;5.73;;;23.00;99.90;;;;;;5092362;28;20437;-82
2021/06/26 10:40:55;;;;;;;5.67;5.27;;;22.90;99.90;;;;;;5090193;28;20504;-82
2021/06/26 10:43:25;;;;;;;6.40;5.70;;;23.00;99.90;;;;;;5088368;28;20959;-82
2021/06/26 10:46:06;;;;;;;7.13;6.40;;;23.30;99.90;;;;;;5086240;28;20521;-82
2021/06/26 10:48:33;;;;;;;5.90;5.50;;;23.00;99.90;;;;;;5084984;28;20464;-82
2021/06/26 10:50:59;;;;;;;5.60;5.20;;;23.20;99.90;;;;;;5080695;28;20441;-84
2021/06/26 10:53:28;;;;;;;6.13;5.63;;;23.30;99.90;;;;;;5079282;28;20470;-83
2021/06/26 10:56:07;;;;;;;4.97;4.57;;;23.30;99.90;;;;;;5079578;28;20489;-83
2021/06/26 10:58:36;;;;;;;5.70;5.30;;;23.50;99.90;;;;;;5080148;28;20855;-84
2021/06/26 11:01:16;;;;;;;4.90;4.60;;;23.70;99.90;;;;;;5079717;28;20458;-84
2021/06/26 11:03:46;;;;;;;5.90;5.40;;;23.70;99.90;;;;;;5079680;28;20481;-84
2021/06/26 11:06:18;;;;;;;5.37;4.90;;;23.80;99.90;;;;;;5085193;28;20461;-82
2021/06/26 11:08:59;;;;;;;4.40;4.10;;;23.90;98.90;;;;;;5087955;28;20812;-82
2021/06/26 11:11:30;;;;;;;5.93;5.07;;;24.10;99.90;;;;;;5087915;28;20422;-83
2021/06/26 11:14:25;;;;;;;5.30;4.90;;;24.10;98.50;;;;;;5089188;28;20458;-82
2021/06/26 11:16:54;;;;;;;4.70;4.40;;;23.90;96.10;;;;;;5052078;28;20475;-82
2021/06/26 11:19:23;;;;;;;4.40;4.10;;;23.90;98.00;;;;;;5098607;28;20426;-81
2021/06/26 11:21:52;;;;;;;5.67;4.63;;;24.00;98.10;;;;;;5098212;28;20490;-84
2021/06/26 11:24:31;;;;;;;5.83;4.97;;;23.80;95.50;;;;;;5096793;28;20483;-82
2021/06/26 11:26:57;;;;;;;5.80;5.30;;;23.80;98.80;;;;;;5081026;28;20483;-83
2021/06/26 11:29:30;;;;;;;4.83;4.53;;;24.00;97.50;;;;;;5080226;28;20505;-83
2021/06/26 11:31:59;;;;;;;5.10;4.70;;;24.10;97.20;;;;;;5081824;28;20920;-83
2021/06/26 11:34:31;;;;;;;5.37;4.97;;;24.10;97.70;;;;;;5079781;28;20475;-83
2021/06/26 11:37:04;;;;;;;4.63;4.33;;;24.20;97.80;;;;;;5081049;28;20443;-84
2021/06/26 11:39:34;;;;;;;5.33;4.40;;;24.30;94.60;;;;;;5084212;28;20431;-82
2021/06/26 11:42:01;;;;;;;4.27;3.97;;;24.20;92.60;;;;;;5090410;28;20467;-83
2021/06/26 11:44:35;;;;;;;4.37;3.97;;;24.30;93.50;;;;;;5090378;28;20463;-83
2021/06/26 11:47:05;;;;;;;4.47;4.10;;;24.50;92.00;;;;;;5092210;28;20457;-84
2021/06/26 11:49:33;;;;;;;3.73;3.40;;;24.50;91.70;;;;;;5091713;28;20461;-83
2021/06/26 11:52:00;;;;;;;4.47;4.07;;;24.40;90.20;;;;;;5092805;28;20785;-84
2021/06/26 11:54:27;;;;;;;5.00;4.50;;;24.20;90.80;;;;;;5094637;28;20453;-84
2021/06/26 11:56:53;;;;;;;3.77;3.47;;;24.70;90.40;;;;;;5091197;28;20437;-84
2021/06/26 11:59:20;;;;;;;4.77;4.27;;;24.10;91.00;;;;;;5090945;28;20448;-83
2021/06/26 12:01:47;;;;;;;4.00;3.80;;;24.30;88.30;;;;;;5093312;28;20573;-84
2021/06/26 12:04:27;;;;;;;3.90;3.60;;;24.30;89.40;;;;;;5092215;28;20470;-83
2021/06/26 12:06:53;;;;;;;5.50;4.10;;;24.40;90.80;;;;;;5092425;28;20461;-84
2021/06/26 12:09:23;;;;;;;6.83;4.13;;;24.50;91.10;;;;;;5091520;28;20478;-84
2021/06/26 12:11:50;;;;;;;5.93;5.33;;;24.30;84.80;;;;;;5090859;28;20944;-84
2021/06/26 12:14:17;;;;;;;3.87;3.57;;;;;;;;;;5091484;28;20476;-84
2021/06/26 12:16:44;;;;;;;4.10;3.80;;;24.80;87.50;;;;;;5090572;28;20428;-83
2021/06/26 12:19:12;;;;;;;5.53;3.60;;;24.90;85.60;;;;;;5090857;28;20480;-84
2021/06/26 12:21:44;;;;;;;3.83;3.53;;;25.00;86.70;;;;;;5094940;28;20478;-85
2021/06/26 12:24:13;;;;;;;5.00;3.30;;;25.00;83.50;;;;;;5092320;28;20455;-83
2021/06/26 12:26:39;;;;;;;3.40;3.10;;;26.00;83.30;;;;;;5091215;28;20443;-84
2021/06/26 12:29:06;;;;;;;3.20;3.00;;;24.90;80.10;;;;;;5092839;28;20430;-84
2021/06/26 12:31:42;;;;;;;2.63;2.43;;;24.80;80.90;;;;;;5086389;28;20459;-83
2021/06/26 12:34:09;;;;;;;3.20;3.00;;;24.60;80.10;;;;;;5085731;28;20541;-84
2021/06/26 12:36:35;;;;;;;3.43;3.23;;;24.50;78.10;;;;;;5087865;28;20450;-84
2021/06/26 12:39:07;;;;;;;3.27;2.97;;;24.50;77.20;;;;;;5090288;28;20447;-84
2021/06/26 12:41:34;;;;;;;3.10;2.87;;;24.50;82.10;;;;;;5089113;28;20481;-84
2021/06/26 12:44:02;;;;;;;3.93;3.60;;;24.50;81.10;;;;;;5090479;28;20539;-84
2021/06/26 12:46:31;;;;;;;3.90;3.40;;;24.50;81.80;;;;;;5092469;28;20493;-82
2021/06/26 12:48:59;;;;;;;2.63;2.53;;;24.40;83.10;;;;;;5096909;28;20466;-84